Time;durP1;ratioP1;P1;durP2;ratioP2;P2;SDS_P1;SDS_P2;PMS_P1;PMS_P2;Temp;Humidity;BMP_temperature;BMP_pressure;BME280_temperature;BME280_humidity;BME280_pressure;Samples;Min_cycle;Max_cycle;Signal;HPM_P1;HPM_P2
2021/10/03 00:03:24;;;;;;;;;;;;;;;19.13;53.05;100510.28;5000756;28;98488;-85
2021/10/03 00:05:59;;;;;;;;;;;;;;;18.97;53.10;100519.44;5001076;28;96146;-82
2021/10/03 00:11:13;;;;;;;;;;;;;;;19.12;52.85;100528.16;4985456;28;98542;-85
2021/10/03 00:13:42;;;;;;;;;;;;;;;19.10;52.74;100525.59;5000846;28;99331;-85
2021/10/03 00:16:11;;;;;;;;;;;;;;;19.07;52.53;100520.47;5001703;28;95901;-87
2021/10/03 00:18:38;;;;;;;;;;;;;;;19.07;52.76;100517.81;4984388;28;96865;-87
2021/10/03 00:21:15;;;;;;;;;;;;;;;18.86;53.01;100502.47;4996874;28;97921;-89
2021/10/03 00:23:43;;;;;;;;;;;;;;;18.91;52.68;100502.97;4986505;28;97354;-90
2021/10/03 00:26:11;;;;;;;;;;;;;;;18.66;53.30;100498.56;4999774;28;95919;-89
2021/10/03 00:28:39;;;;;;;;;;;;;;;18.85;52.75;100495.41;5299943;22;100107;-91
2021/10/03 00:31:05;;;;;;;;;;;;;;;18.91;52.64;100487.75;4977919;28;97737;-89
2021/10/03 00:33:36;;;;;;;;;;;;;;;18.81;52.94;100484.06;4975761;28;98987;-89
2021/10/03 00:36:14;;;;;;;;;;;;;;;18.95;52.45;100486.59;4974341;28;96590;-90
2021/10/03 00:38:43;;;;;;;;;;;;;;;18.84;52.29;100481.16;4991973;28;96630;-91
2021/10/03 00:41:14;;;;;;;;;;;;;;;18.78;52.38;100481.59;4982024;28;98210;-91
2021/10/03 00:43:49;;;;;;;;;;;;;;;18.90;52.21;100480.72;4999715;28;98153;-90
2021/10/03 00:46:16;;;;;;;;;;;;;;;19.21;51.16;100475.75;4997146;28;96530;-88
2021/10/03 00:54:12;;;;;;;;;;;;;;;19.16;51.13;100475.25;4979074;28;99962;-90
2021/10/03 00:56:41;;;;;;;;;;;;;;;18.89;51.41;100478.16;4966896;28;97073;-89
2021/10/03 00:59:09;;;;;;;;;;;;;;;18.67;51.97;100469.03;4976904;28;96634;-89
2021/10/03 01:01:38;;;;;;;;;;;;;;;19.07;51.02;100466.06;4982451;28;99056;-90
2021/10/03 01:06:46;;;;;;;;;;;;;;;18.90;50.74;100469.16;4965353;28;96569;-88
2021/10/03 01:09:14;;;;;;;;;;;;;;;18.93;50.34;100474.28;4987615;28;96837;-89
2021/10/03 01:11:41;;;;;;;;;;;;;;;18.43;51.69;100475.28;4984142;28;98218;-88
2021/10/03 01:14:08;;;;;;;;;;;;;;;18.71;50.93;100475.00;4986306;28;97992;-89
2021/10/03 01:19:19;;;;;;;;;;;;;;;18.89;49.92;100468.31;4989576;28;96823;-90
2021/10/03 01:21:48;;;;;;;;;;;;;;;18.90;49.83;100463.81;4998322;28;98981;-90
2021/10/03 01:24:15;;;;;;;;;;;;;;;18.27;50.92;100459.47;4981333;28;99065;-89
2021/10/03 01:29:23;;;;;;;;;;;;;;;18.63;49.87;100459.53;4997899;28;96068;-89
2021/10/03 01:39:57;;;;;;;;;;;;;;;18.67;49.23;100444.09;4998852;28;97129;-87
2021/10/03 01:42:23;;;;;;;;;;;;;;;18.82;48.81;100445.63;4999846;28;99218;-88
2021/10/03 01:44:49;;;;;;;;;;;;;;;18.87;48.72;100453.31;4999256;28;99768;-88
2021/10/03 01:47:16;;;;;;;;;;;;;;;18.75;48.75;100454.22;4999934;28;95867;-89
2021/10/03 01:49:42;;;;;;;;;;;;;;;18.67;48.62;100452.09;4990499;28;96183;-82
2021/10/03 01:52:10;;;;;;;;;;;;;;;18.60;49.06;100443.69;5000426;28;96906;-87
2021/10/03 01:54:39;;;;;;;;;;;;;;;18.84;48.25;100448.22;4991603;28;96926;-86
2021/10/03 01:57:06;;;;;;;;;;;;;;;18.91;47.83;100444.06;4962256;28;96207;-88
2021/10/03 02:02:14;;;;;;;;;;;;;;;18.81;47.58;100446.59;5002561;28;96949;-89
2021/10/03 02:04:41;;;;;;;;;;;;;;;18.94;47.60;100449.22;5001144;28;98334;-89
2021/10/03 02:07:08;;;;;;;;;;;;;;;19.11;47.16;100451.47;4987497;28;96469;-89
2021/10/03 02:09:34;;;;;;;;;;;;;;;18.72;47.78;100449.94;4971571;28;96742;-89
2021/10/03 02:12:02;;;;;;;;;;;;;;;18.60;48.03;100445.50;4991385;28;97650;-88
2021/10/03 02:17:22;;;;;;;;;;;;;;;18.99;47.19;100439.00;4988789;28;96594;-90
2021/10/03 02:19:52;;;;;;;;;;;;;;;18.91;47.19;100433.38;4994607;28;96881;-89
2021/10/03 02:22:19;;;;;;;;;;;;;;;18.85;47.04;100439.19;4987753;28;98321;-89
2021/10/03 02:33:50;;;;;;;;;;;;;;;18.70;47.14;100423.31;4999380;28;98955;-89
2021/10/03 02:36:20;;;;;;;;;;;;;;;18.75;47.26;100428.31;5017455;22;100055;-89
2021/10/03 02:38:47;;;;;;;;;;;;;;;18.76;47.07;100418.47;4986442;28;96746;-89
2021/10/03 02:41:14;;;;;;;;;;;;;;;18.88;46.86;100429.13;4956624;28;96660;-88
2021/10/03 02:43:42;;;;;;;;;;;;;;;18.63;47.37;100426.56;4987722;28;98968;-90
2021/10/03 02:48:53;;;;;;;;;;;;;;;18.79;46.72;100427.09;4988403;28;96632;-89
2021/10/03 02:51:30;;;;;;;;;;;;;;;18.63;47.11;100422.06;4973017;28;96693;-91
2021/10/03 02:54:01;;;;;;;;;;;;;;;18.63;47.32;100419.38;4990352;28;98019;-90
2021/10/03 03:01:55;;;;;;;;;;;;;;;18.76;46.63;100415.78;4988483;28;96704;-87
2021/10/03 03:04:24;;;;;;;;;;;;;;;18.50;47.11;100423.03;4978473;28;97617;-89
2021/10/03 03:06:57;;;;;;;;;;;;;;;18.66;46.39;100420.97;4994400;28;100331;-90
2021/10/03 03:09:28;;;;;;;;;;;;;;;18.91;46.22;100414.63;4994552;28;96748;-89
2021/10/03 03:11:56;;;;;;;;;;;;;;;18.78;46.19;100420.03;4999006;28;96522;-88
2021/10/03 03:14:27;;;;;;;;;;;;;;;18.55;46.86;100411.06;4999563;28;99696;-88
2021/10/03 03:16:55;;;;;;;;;;;;;;;18.89;46.10;100409.41;4996840;28;99102;-89
2021/10/03 03:19:24;;;;;;;;;;;;;;;18.57;46.51;100410.97;5000020;28;96723;-89
2021/10/03 03:21:56;;;;;;;;;;;;;;;18.54;46.97;100403.97;5000383;28;96554;-88
2021/10/03 03:27:15;;;;;;;;;;;;;;;18.67;46.85;100401.25;5051851;27;2047479;-89
2021/10/03 03:29:51;;;;;;;;;;;;;;;18.55;46.99;100405.72;5101467;27;96810;-90
2021/10/03 03:32:22;;;;;;;;;;;;;;;18.65;46.56;100412.06;5107081;27;99359;-90
2021/10/03 03:34:51;;;;;;;;;;;;;;;18.69;46.60;100410.91;5116001;27;99747;-88
2021/10/03 03:37:23;;;;;;;;;;;;;;;18.71;46.27;100397.38;5119153;27;96428;-86
2021/10/03 03:39:53;;;;;;;;;;;;;;;18.78;45.99;100403.97;5124683;27;97026;-85
2021/10/03 03:42:20;;;;;;;;;;;;;;;18.48;47.16;100404.41;5119680;27;99897;-84
2021/10/03 03:44:55;;;;;;;;;;;;;;;18.87;46.32;100405.13;5119008;27;98089;-83
2021/10/03 03:47:22;;;;;;;;;;;;;;;18.81;46.08;100403.78;5119711;27;95946;-88
2021/10/03 03:49:51;;;;;;;;;;;;;;;18.80;46.22;100409.22;5119444;27;98066;-88
2021/10/03 03:52:21;;;;;;;;;;;;;;;18.79;46.21;100407.50;5112974;27;99835;-89
2021/10/03 03:54:57;;;;;;;;;;;;;;;18.62;46.55;100415.00;5090474;27;97026;-90
2021/10/03 03:57:35;;;;;;;;;;;;;;;18.44;46.92;100416.31;5097049;27;96509;-88
2021/10/03 04:02:42;;;;;;;;;;;;;;;18.41;47.12;100418.34;5109102;27;99744;-89
2021/10/03 04:05:09;;;;;;;;;;;;;;;18.69;46.47;100413.56;5108699;27;99570;-89
2021/10/03 04:07:36;;;;;;;;;;;;;;;18.79;46.02;100407.50;5112332;27;96416;-89
2021/10/03 04:10:06;;;;;;;;;;;;;;;18.58;46.50;100409.97;5102797;27;96611;-89
2021/10/03 04:12:42;;;;;;;;;;;;;;;18.55;46.63;100400.34;5118313;27;98372;-89
2021/10/03 04:15:11;;;;;;;;;;;;;;;18.52;46.50;100397.84;5129948;27;98598;-88
2021/10/03 04:17:38;;;;;;;;;;;;;;;18.65;46.14;100401.38;5138370;27;95872;-89
2021/10/03 04:22:51;;;;;;;;;;;;;;;18.78;46.21;100403.13;5075496;27;98842;-88
2021/10/03 04:25:19;;;;;;;;;;;;;;;18.63;46.50;100403.31;5116447;27;99389;-88
2021/10/03 04:27:59;;;;;;;;;;;;;;;18.57;46.56;100403.78;5119271;27;97591;-89
2021/10/03 04:30:28;;;;;;;;;;;;;;;18.76;46.11;100407.75;5082197;27;96603;-90
2021/10/03 04:32:57;;;;;;;;;;;;;;;18.67;46.20;100402.13;5118878;27;99272;-90
2021/10/03 04:38:09;;;;;;;;;;;;;;;18.73;45.99;100402.63;5096779;27;96706;-90
2021/10/03 04:40:36;;;;;;;;;;;;;;;18.35;46.91;100403.59;5084397;22;96795;-89
2021/10/03 04:43:12;;;;;;;;;;;;;;;18.73;46.05;100399.94;5031494;28;96801;-90
2021/10/03 04:45:41;;;;;;;;;;;;;;;18.42;46.57;100404.88;5054732;28;99977;-89
2021/10/03 04:48:08;;;;;;;;;;;;;;;18.35;46.98;100398.25;5063992;27;96131;-87
2021/10/03 04:50:36;;;;;;;;;;;;;;;18.53;46.48;100396.91;5063660;27;97742;-86
2021/10/03 04:55:45;;;;;;;;;;;;;;;18.74;46.04;100404.34;5059259;27;96663;-88
2021/10/03 04:58:15;;;;;;;;;;;;;;;18.59;46.22;100407.19;5026754;28;96442;-88
2021/10/03 05:00:43;;;;;;;;;;;;;;;18.65;46.36;100405.88;5012504;28;96837;-88
2021/10/03 05:05:52;;;;;;;;;;;;;;;18.64;46.27;100410.34;5059809;27;100456;-89
2021/10/03 05:08:18;;;;;;;;;;;;;;;18.42;46.79;100404.00;5060772;27;96950;-87
2021/10/03 05:10:45;;;;;;;;;;;;;;;18.40;46.72;100401.44;5048281;28;96888;-88
2021/10/03 05:13:29;;;;;;;;;;;;;;;18.35;47.17;100406.28;5051295;27;98159;-89
2021/10/03 05:18:48;;;;;;;;;;;;;;;18.67;46.28;100404.78;5049452;27;96804;-89
2021/10/03 05:23:59;;;;;;;;;;;;;;;18.79;45.91;100403.03;5057917;27;98971;-89
2021/10/03 05:26:26;;;;;;;;;;;;;;;18.65;46.16;100404.03;5064348;27;98082;-89
2021/10/03 05:37:00;;;;;;;;;;;;;;;18.69;46.47;100407.38;5070424;27;98829;-90
2021/10/03 05:42:15;;;;;;;;;;;;;;;18.48;47.07;100412.44;5071685;27;96810;-89
2021/10/03 05:44:47;;;;;;;;;;;;;;;18.64;46.60;100405.00;5081601;27;97865;-90
2021/10/03 05:52:36;;;;;;;;;;;;;;;18.09;47.63;100407.31;5068855;27;96633;-87
2021/10/03 05:55:15;;;;;;;;;;;;;;;18.50;47.17;100412.34;5074292;27;96781;-89
2021/10/03 05:57:46;;;;;;;;;;;;;;;18.93;46.01;100402.84;5053506;27;96626;-87
2021/10/03 06:08:55;;;;;;;;;;;;;;;19.03;45.84;100411.88;5035392;28;98347;-90
2021/10/03 06:14:28;;;;;;;;;;;;;;;18.96;46.12;100404.44;5067503;27;96744;-90
2021/10/03 06:22:40;;;;;;;;;;;;;;;18.89;46.69;100412.09;5050739;28;96645;-89
2021/10/03 06:25:25;;;;;;;;;;;;;;;18.83;46.81;100415.22;5051515;28;96683;-89
2021/10/03 06:30:38;;;;;;;;;;;;;;;18.96;46.45;100409.81;5049813;28;98910;-88
2021/10/03 06:33:11;;;;;;;;;;;;;;;18.97;46.47;100415.00;5053126;28;97994;-89
2021/10/03 06:35:39;;;;;;;;;;;;;;;19.15;46.01;100409.25;5041290;27;96022;-88
2021/10/03 06:40:55;;;;;;;;;;;;;;;19.54;44.97;100414.25;5051462;27;96789;-89
2021/10/03 06:43:39;;;;;;;;;;;;;;;19.50;45.51;100402.03;5055623;27;96797;-89
2021/10/03 06:46:11;;;;;;;;;;;;;;;19.57;45.20;100400.59;5055422;27;96856;-87
2021/10/03 06:48:38;;;;;;;;;;;;;;;19.44;45.27;100405.16;5050795;28;97169;-89
2021/10/03 06:51:12;;;;;;;;;;;;;;;19.37;45.71;100403.94;5065527;27;100880;-90
2021/10/03 06:53:38;;;;;;;;;;;;;;;19.58;45.40;100401.44;5052759;28;96721;-88
2021/10/03 07:01:33;;;;;;;;;;;;;;;19.32;46.49;100411.47;5041860;27;98967;-88
2021/10/03 07:04:01;;;;;;;;;;;;;;;19.25;47.38;100408.41;5043170;28;96634;-88
2021/10/03 07:06:37;;;;;;;;;;;;;;;19.13;47.96;100404.00;5061024;27;96341;-90
2021/10/03 07:11:45;;;;;;;;;;;;;;;19.17;48.01;100397.44;5059615;27;98935;-87
2021/10/03 07:14:15;;;;;;;;;;;;;;;19.44;47.69;100402.50;5041476;27;97225;-90
2021/10/03 07:16:45;;;;;;;;;;;;;;;19.78;47.30;100414.16;5059957;27;96413;-88
2021/10/03 07:19:22;;;;;;;;;;;;;;;19.70;46.57;100403.16;5060819;27;97946;-89
2021/10/03 07:21:50;;;;;;;;;;;;;;;19.64;46.64;100407.19;5062233;27;99258;-89
2021/10/03 07:24:17;;;;;;;;;;;;;;;19.61;46.25;100401.22;5078068;27;95878;-86
2021/10/03 07:26:44;;;;;;;;;;;;;;;19.43;46.67;100393.59;5061594;27;96151;-84
2021/10/03 07:34:36;;;;;;;;;;;;;;;19.54;46.93;100424.13;5061735;27;95984;-84
2021/10/03 07:37:03;;;;;;;;;;;;;;;19.88;46.07;100417.81;5062185;27;96050;-83
2021/10/03 07:42:12;;;;;;;;;;;;;;;20.38;45.15;100405.72;5059862;27;98778;-85
2021/10/03 07:44:39;;;;;;;;;;;;;;;20.20;45.17;100413.41;5061759;27;96538;-87
2021/10/03 07:50:14;;;;;;;;;;;;;;;20.15;45.23;100407.53;5058358;28;99072;-91
2021/10/03 07:52:53;;;;;;;;;;;;;;;19.75;46.12;100411.72;5042770;28;96680;-89
2021/10/03 07:55:28;;;;;;;;;;;;;;;19.67;46.21;100411.47;5057987;28;95908;-91
2021/10/03 08:06:29;;;;;;;;;;;;;;;20.12;45.38;100423.06;5076069;27;96583;-88
2021/10/03 08:28:41;;;;;;;;;;;;;;;20.22;45.20;100402.53;5049308;28;96862;-85
2021/10/03 08:39:17;;;;;;;;;;;;;;;20.63;44.25;100396.50;5062660;27;96323;-88
2021/10/03 08:41:46;;;;;;;;;;;;;;;20.77;43.96;100392.69;5044444;27;96422;-88
2021/10/03 08:46:57;;;;;;;;;;;;;;;21.26;43.09;100392.13;5041242;28;98125;-87
2021/10/03 08:49:25;;;;;;;;;;;;;;;21.08;42.90;100387.28;5034906;27;97019;-88
2021/10/03 08:51:52;;;;;;;;;;;;;;;21.08;43.38;100386.44;5051726;27;96672;-86
2021/10/03 09:00:00;;;;;;;;;;;;;;;21.64;42.42;100373.53;5034963;28;96647;-84
2021/10/03 09:05:11;;;;;;;;;;;;;;;21.33;42.74;100385.25;5038796;28;98882;-85
2021/10/03 09:07:41;;;;;;;;;;;;;;;21.48;42.45;100383.91;5050526;28;99337;-85
2021/10/03 09:10:34;;;;;;;;;;;;;;;21.64;42.71;100378.06;5027461;28;96957;-84
2021/10/03 09:13:08;;;;;;;;;;;;;;;21.76;42.21;100377.00;5050829;27;96849;-86
2021/10/03 09:15:39;;;;;;;;;;;;;;;21.98;41.84;100371.47;5060283;27;97054;-84
2021/10/03 09:18:15;;;;;;;;;;;;;;;21.80;41.91;100373.03;5057371;27;99532;-83
2021/10/03 09:20:43;;;;;;;;;;;;;;;21.97;41.91;100379.66;5047874;28;96943;-84
2021/10/03 09:25:54;;;;;;;;;;;;;;;22.30;41.58;100379.34;5034218;28;100035;-84
2021/10/03 09:28:30;;;;;;;;;;;;;;;21.84;42.62;100380.72;5036265;27;100639;-80
2021/10/03 09:30:59;;;;;;;;;;;;;;;21.98;42.14;100379.53;5034047;28;97127;-85
2021/10/03 09:33:27;;;;;;;;;;;;;;;21.98;42.53;100376.00;5049156;27;96836;-87
2021/10/03 09:35:58;;;;;;;;;;;;;;;22.17;41.93;100376.06;5042871;27;97055;-82
2021/10/03 09:38:26;;;;;;;;;;;;;;;21.27;43.65;100375.84;5049484;28;97992;-86
2021/10/03 09:41:03;;;;;;;;;;;;;;;21.34;43.83;100373.50;5030905;28;96577;-86
2021/10/03 09:43:57;;;;;;;;;;;;;;;21.79;43.16;100377.56;5029895;28;96856;-84
2021/10/03 09:46:37;;;;;;;;;;;;;;;21.93;42.55;100388.94;5045802;27;100418;-82
2021/10/03 09:49:07;;;;;;;;;;;;;;;22.19;42.26;100382.13;5051093;27;99218;-84
2021/10/03 09:54:15;;;;;;;;;;;;;;;21.93;42.69;100391.63;5044112;27;97267;-82
2021/10/03 09:56:42;;;;;;;;;;;;;;;22.23;42.33;100386.25;5060102;27;98206;-84
2021/10/03 09:59:13;;;;;;;;;;;;;;;22.22;42.19;100380.03;5053451;27;99452;-83
2021/10/03 10:01:44;;;;;;;;;;;;;;;21.87;42.70;100377.75;5040978;27;97188;-83
2021/10/03 10:04:13;;;;;;;;;;;;;;;22.00;43.03;100382.91;5049828;27;97389;-82
2021/10/03 10:06:40;;;;;;;;;;;;;;;22.94;41.47;100386.94;5043104;27;99766;-84
2021/10/03 10:09:08;;;;;;;;;;;;;;;22.88;41.11;100388.38;5052698;27;99540;-84
2021/10/03 10:11:37;;;;;;;;;;;;;;;22.62;41.31;100398.81;5061493;27;95998;-88
2021/10/03 10:14:06;;;;;;;;;;;;;;;22.37;42.48;100385.88;5061815;27;95994;-88
2021/10/03 10:16:42;;;;;;;;;;;;;;;22.75;41.65;100382.41;5060827;27;96390;-86
2021/10/03 10:19:29;;;;;;;;;;;;;;;22.75;41.57;100376.16;5059195;27;99610;-85
2021/10/03 10:24:56;;;;;;;;;;;;;;;22.79;41.78;100380.28;5042638;27;96984;-87
2021/10/03 10:27:39;;;;;;;;;;;;;;;23.35;40.78;100380.38;5046978;27;99878;-87
2021/10/03 10:30:08;;;;;;;;;;;;;;;23.30;40.78;100379.97;5029537;28;98819;-88
2021/10/03 10:35:41;;;;;;;;;;;;;;;22.79;42.06;100366.81;5132543;22;98236;-87
2021/10/03 10:38:15;;;;;;;;;;;;;;;23.54;41.24;100366.88;5042878;28;96939;-88
2021/10/03 10:40:45;;;;;;;;;;;;;;;23.51;41.21;100363.63;5034670;28;98115;-85
2021/10/03 10:43:45;;;;;;;;;;;;;;;23.59;40.75;100367.28;5037782;28;98053;-85
2021/10/03 10:46:36;;;;;;;;;;;;;;;23.82;40.55;100367.78;5024938;28;97276;-86
2021/10/03 10:55:17;;;;;;;;;;;;;;;24.32;39.10;100359.31;5036321;28;96832;-85
2021/10/03 10:58:01;;;;;;;;;;;;;;;23.79;39.32;100362.69;5032974;28;97040;-86
2021/10/03 11:00:33;;;;;;;;;;;;;;;23.99;38.56;100360.75;5026641;28;97185;-85
2021/10/03 11:03:01;;;;;;;;;;;;;;;24.42;37.37;100349.28;5039267;28;98795;-85
2021/10/03 11:05:43;;;;;;;;;;;;;;;24.64;37.13;100362.34;5037256;28;97196;-87
2021/10/03 11:08:15;;;;;;;;;;;;;;;24.42;37.38;100362.78;5007162;28;97890;-87
2021/10/03 11:11:00;;;;;;;;;;;;;;;24.09;37.73;100362.38;5041245;28;99112;-86
2021/10/03 11:16:22;;;;;;;;;;;;;;;24.91;36.26;100388.50;5038253;28;97187;-86
2021/10/03 11:18:52;;;;;;;;;;;;;;;24.91;36.12;100381.22;5040387;28;96723;-86
2021/10/03 11:21:26;;;;;;;;;;;;;;;25.41;35.80;100370.63;5045579;28;101405;-87
2021/10/03 11:27:05;;;;;;;;;;;;;;;25.32;35.63;100365.34;4996296;28;96718;-88
2021/10/03 11:29:33;;;;;;;;;;;;;;;24.62;36.14;100367.06;4979455;27;96834;-84
2021/10/03 11:32:00;;;;;;;;;;;;;;;25.28;35.78;100358.53;5009619;27;100006;-86
2021/10/03 11:34:34;;;;;;;;;;;;;;;25.64;35.21;100365.59;4988236;27;101343;-86
2021/10/03 11:39:49;;;;;;;;;;;;;;;25.79;35.15;100358.59;4985350;27;97156;-88
2021/10/03 11:42:31;;;;;;;;;;;;;;;25.95;35.05;100363.19;4989709;27;99114;-86
2021/10/03 11:45:00;;;;;;;;;;;;;;;26.19;34.40;100365.16;5025970;23;97188;-86
2021/10/03 11:47:27;;;;;;;;;;;;;;;25.66;34.87;100360.88;5028149;28;96882;-86
2021/10/03 11:50:00;;;;;;;;;;;;;;;25.82;34.93;100367.38;5044964;28;96664;-83
2021/10/03 11:52:41;;;;;;;;;;;;;;;26.29;34.64;100360.50;5038639;28;99792;-87
2021/10/03 11:55:21;;;;;;;;;;;;;;;26.34;34.68;100360.84;5027287;28;97459;-86
2021/10/03 11:57:50;;;;;;;;;;;;;;;26.41;34.23;100353.75;5022674;28;96926;-84
2021/10/03 12:00:21;;;;;;;;;;;;;;;26.67;34.13;100350.91;5037896;28;96897;-87
2021/10/03 12:08:17;;;;;;;;;;;;;;;25.93;35.51;100338.16;5050617;27;96420;-87
2021/10/03 12:13:49;;;;;;;;;;;;;;;26.47;34.60;100339.53;5049682;28;100482;-88
2021/10/03 12:16:18;;;;;;;;;;;;;;;26.52;34.57;100342.59;5048569;28;98999;-85
2021/10/03 12:21:29;;;;;;;;;;;;;;;25.63;35.70;100347.66;5029501;28;97749;-84
2021/10/03 12:24:00;;;;;;;;;;;;;;;25.70;34.99;100342.44;5048159;28;98594;-83
2021/10/03 12:26:31;;;;;;;;;;;;;;;26.10;34.95;100328.25;5008412;22;100107;-84
2021/10/03 12:29:00;;;;;;;;;;;;;;;26.28;34.65;100337.13;4930148;28;97310;-83
2021/10/03 12:31:58;;;;;;;;;;;;;;;26.44;34.62;100328.19;4918005;28;96998;-85
2021/10/03 12:34:36;;;;;;;;;;;;;;;27.10;33.87;100319.97;4925172;28;99714;-84
2021/10/03 12:37:05;;;;;;;;;;;;;;;26.87;33.89;100327.03;4928104;28;101357;-85
2021/10/03 12:39:34;;;;;;;;;;;;;;;27.29;33.24;100316.91;4905820;28;97544;-85
2021/10/03 12:42:04;;;;;;;;;;;;;;;27.12;33.46;100319.78;4903192;28;96931;-85
2021/10/03 12:44:33;;;;;;;;;;;;;;;26.65;34.22;100315.00;4901714;28;99276;-84
2021/10/03 12:47:00;;;;;;;;;;;;;;;26.77;33.24;100327.22;4910990;28;100261;-90
2021/10/03 12:49:27;;;;;;;;;;;;;;;26.94;33.13;100328.94;4912401;28;96758;-83
2021/10/03 12:54:46;;;;;;;;;;;;;;;27.11;33.46;100307.25;4901463;28;98881;-84
2021/10/03 12:57:15;;;;;;;;;;;;;;;26.66;33.25;100305.84;4912440;28;98137;-85
2021/10/03 12:59:42;;;;;;;;;;;;;;;26.81;32.77;100317.72;4919892;28;97351;-83
2021/10/03 13:02:26;;;;;;;;;;;;;;;27.08;32.45;100311.16;4924075;27;97729;-86
2021/10/03 13:04:55;;;;;;;;;;;;;;;26.81;33.07;100322.31;4920214;28;99852;-84
2021/10/03 13:07:36;;;;;;;;;;;;;;;27.08;32.67;100313.88;4923504;28;100414;-90
2021/10/03 13:12:44;;;;;;;;;;;;;;;27.51;32.42;100314.44;4921327;28;96476;-87
2021/10/03 13:15:11;;;;;;;;;;;;;;;27.53;32.21;100317.88;4920516;27;97510;-85
2021/10/03 13:17:38;;;;;;;;;;;;;;;27.28;32.93;100315.19;4921666;28;98079;-80
2021/10/03 13:20:04;;;;;;;;;;;;;;;27.26;32.98;100324.50;4922163;28;96070;-85
2021/10/03 13:22:34;;;;;;;;;;;;;;;27.36;32.83;100328.75;4922882;28;95985;-80
2021/10/03 13:25:21;;;;;;;;;;;;;;;27.43;32.44;100330.78;4920998;28;98267;-84
2021/10/03 13:27:48;;;;;;;;;;;;;;;27.58;32.59;100320.91;4919060;28;98034;-86
2021/10/03 13:30:14;;;;;;;;;;;;;;;27.91;32.47;100321.63;4921644;28;96513;-90
2021/10/03 13:32:43;;;;;;;;;;;;;;;28.33;32.02;100322.16;4921583;28;96450;-87
2021/10/03 13:37:56;;;;;;;;;;;;;;;28.78;30.74;100315.91;4896265;28;96815;-88
2021/10/03 13:40:25;;;;;;;;;;;;;;;28.98;30.41;100307.25;4907042;28;96936;-88
2021/10/03 13:42:51;;;;;;;;;;;;;;;28.87;29.78;100319.41;4906577;28;96801;-87
2021/10/03 13:50:56;;;;;;;;;;;;;;;29.34;29.33;100324.63;4913308;28;96772;-87
2021/10/03 13:53:29;;;;;;;;;;;;;;;29.64;29.64;100329.06;4919677;28;96599;-84
2021/10/03 13:55:57;;;;;;;;;;;;;;;29.30;29.71;100324.09;4913972;28;99802;-85
2021/10/03 13:58:23;;;;;;;;;;;;;;;28.95;29.86;100329.38;4906808;28;98950;-88
2021/10/03 14:00:52;;;;;;;;;;;;;;;28.76;29.80;100325.25;4904393;28;96996;-84
2021/10/03 14:03:19;;;;;;;;;;;;;;;28.52;30.30;100326.28;4901405;28;97065;-85
2021/10/03 14:05:46;;;;;;;;;;;;;;;27.53;30.85;100318.72;4900313;28;98983;-88
2021/10/03 14:08:19;;;;;;;;;;;;;;;27.97;30.39;100321.78;4915718;28;96751;-88
2021/10/03 14:10:49;;;;;;;;;;;;;;;27.58;30.67;100338.03;4910094;28;96829;-86
2021/10/03 14:13:16;;;;;;;;;;;;;;;27.54;30.68;100328.56;4915145;28;96695;-91
2021/10/03 14:18:25;;;;;;;;;;;;;;;27.78;30.64;100335.78;4919303;28;98649;-90
2021/10/03 14:20:52;;;;;;;;;;;;;;;27.55;30.64;100338.41;4914706;28;96586;-92
2021/10/03 14:26:02;;;;;;;;;;;;;;;27.43;30.93;100337.03;4917139;28;99764;-85
2021/10/03 14:36:51;;;;;;;;;;;;;;;27.43;31.29;100325.34;5054143;28;96501;-87
2021/10/03 14:39:27;;;;;;;;;;;;;;;27.08;31.96;100322.00;5069532;27;100944;-89
2021/10/03 14:41:58;;;;;;;;;;;;;;;26.95;32.23;100330.66;5059545;27;96527;-88
2021/10/03 14:44:25;;;;;;;;;;;;;;;26.84;32.31;100332.81;5051248;27;96870;-86
2021/10/03 14:46:52;;;;;;;;;;;;;;;26.49;32.86;100336.66;5028068;28;100131;-86
2021/10/03 14:49:19;;;;;;;;;;;;;;;26.68;32.91;100332.81;5040639;27;98125;-89
2021/10/03 14:51:47;;;;;;;;;;;;;;;26.62;33.00;100333.47;5046890;27;96795;-87
2021/10/03 14:54:13;;;;;;;;;;;;;;;26.76;32.58;100338.22;5031747;28;96692;-87
2021/10/03 14:56:40;;;;;;;;;;;;;;;26.36;33.26;100342.56;5009243;28;98717;-86
2021/10/03 14:59:10;;;;;;;;;;;;;;;26.46;33.12;100337.84;5008028;28;99156;-88
2021/10/03 15:01:37;;;;;;;;;;;;;;;26.20;33.15;100345.19;5046543;28;96892;-86
2021/10/03 15:04:03;;;;;;;;;;;;;;;26.43;32.80;100348.19;5039073;28;97169;-87
2021/10/03 15:06:30;;;;;;;;;;;;;;;26.22;33.07;100351.28;5053142;28;97855;-87
2021/10/03 15:08:57;;;;;;;;;;;;;;;26.45;33.04;100359.69;5042082;28;98102;-88
2021/10/03 15:14:04;;;;;;;;;;;;;;;26.32;33.41;100367.44;5051517;27;96948;-88
2021/10/03 15:16:38;;;;;;;;;;;;;;;26.56;33.64;100352.09;5052422;28;100399;-87
2021/10/03 15:19:05;;;;;;;;;;;;;;;26.44;33.68;100358.84;5051910;28;98988;-90
2021/10/03 15:24:11;;;;;;;;;;;;;;;26.11;34.39;100341.63;5050710;28;96646;-90
2021/10/03 15:26:48;;;;;;;;;;;;;;;25.75;35.31;100324.72;5052619;28;98885;-91
2021/10/03 15:31:57;;;;;;;;;;;;;;;25.36;35.65;100331.56;5042855;28;96382;-87
2021/10/03 15:34:28;;;;;;;;;;;;;;;25.44;35.38;100336.19;5020231;28;96587;-91
2021/10/03 15:37:01;;;;;;;;;;;;;;;25.52;35.06;100331.69;5015955;28;100212;-86
2021/10/03 15:44:55;;;;;;;;;;;;;;;25.36;35.99;100348.63;5035528;27;96083;-84
2021/10/03 15:47:27;;;;;;;;;;;;;;;25.23;35.45;100360.88;5052020;27;96634;-83
2021/10/03 15:52:34;;;;;;;;;;;;;;;25.37;35.43;100352.19;5023881;28;96065;-86
2021/10/03 15:55:02;;;;;;;;;;;;;;;25.43;35.50;100359.66;5034351;27;96734;-82
2021/10/03 15:57:30;;;;;;;;;;;;;;;25.34;35.64;100353.34;5047109;27;97886;-84
2021/10/03 16:13:39;;;;;;;;;;;;;;;25.15;35.91;100363.50;5021778;28;96725;-83
2021/10/03 16:16:07;;;;;;;;;;;;;;;25.03;36.22;100376.44;5023675;28;96695;-84
2021/10/03 16:18:38;;;;;;;;;;;;;;;24.95;36.45;100379.91;5049708;27;99692;-89
2021/10/03 16:21:05;;;;;;;;;;;;;;;25.17;35.81;100388.53;5040804;28;97887;-89
2021/10/03 16:23:31;;;;;;;;;;;;;;;25.10;36.10;100385.63;5045019;28;95961;-89
2021/10/03 16:25:59;;;;;;;;;;;;;;;24.92;36.37;100382.09;5063097;27;95910;-86
2021/10/03 16:28:28;;;;;;;;;;;;;;;25.23;35.83;100394.16;5043382;27;101306;-90
2021/10/03 16:31:12;;;;;;;;;;;;;;;24.95;36.19;100400.69;5002209;28;97794;-91
2021/10/03 16:33:41;;;;;;;;;;;;;;;24.88;36.55;100399.56;5012580;28;96487;-91
2021/10/03 16:36:07;;;;;;;;;;;;;;;25.10;36.20;100404.53;5044733;27;96503;-90
2021/10/03 16:44:06;;;;;;;;;;;;;;;24.75;36.65;100420.72;5046067;27;96628;-90
2021/10/03 16:46:33;;;;;;;;;;;;;;;24.85;36.50;100410.69;5045514;28;96575;-85
2021/10/03 16:49:19;;;;;;;;;;;;;;;24.91;36.15;100424.47;5040196;28;101272;-89
2021/10/03 16:52:03;;;;;;;;;;;;;;;24.62;37.04;100432.75;5035587;28;96692;-88
2021/10/03 16:57:49;;;;;;;;;;;;;;;24.79;36.59;100433.78;5040168;28;96790;-88
2021/10/03 17:00:18;;;;;;;;;;;;;;;24.81;36.87;100433.63;5044017;28;97300;-88
2021/10/03 17:02:47;;;;;;;;;;;;;;;24.69;37.03;100435.69;5027230;28;99804;-88
2021/10/03 17:05:14;;;;;;;;;;;;;;;24.61;37.13;100430.22;5050713;27;96893;-86
2021/10/03 17:07:43;;;;;;;;;;;;;;;24.48;37.11;100424.31;5024275;28;96299;-88
2021/10/03 17:10:11;;;;;;;;;;;;;;;24.72;37.16;100439.94;5023194;27;97582;-87
2021/10/03 17:12:37;;;;;;;;;;;;;;;24.55;36.74;100442.44;5040180;28;99003;-85
2021/10/03 17:15:13;;;;;;;;;;;;;;;24.55;36.94;100447.84;5042560;27;95949;-83
2021/10/03 17:17:48;;;;;;;;;;;;;;;24.69;36.77;100449.19;5041753;27;96225;-86
2021/10/03 17:20:14;;;;;;;;;;;;;;;24.77;36.55;100462.78;5044829;27;96416;-86
2021/10/03 17:22:41;;;;;;;;;;;;;;;24.46;36.91;100458.72;5039229;27;98064;-84
2021/10/03 17:27:49;;;;;;;;;;;;;;;24.31;37.21;100455.66;5032544;28;96042;-84
2021/10/03 17:33:15;;;;;;;;;;;;;;;24.33;36.73;100458.22;5024371;28;98747;-85
2021/10/03 17:35:57;;;;;;;;;;;;;;;24.05;37.40;100471.66;5041376;28;97071;-87
2021/10/03 18:04:28;;;;;;;;;;;;;;;23.94;37.24;100500.66;5033068;28;96918;-87